Time;durP1;ratioP1;P1;durP2;ratioP2;P2;SDS_P1;SDS_P2;PMS_P1;PMS_P2;Temp;Humidity;BMP_temperature;BMP_pressure;BME280_temperature;BME280_humidity;BME280_pressure;Samples;Min_cycle;Max_cycle;Signal;HPM_P1;HPM_P2
2023/08/09 00:00:38;;;;;;;2.20;1.47;;;;;;;16.58;86.72;98611.22;4938718;28;20235;-59
2023/08/09 00:03:05;;;;;;;6.00;1.80;;;;;;;16.56;86.58;98608.78;4939329;28;20233;-59
2023/08/09 00:05:32;;;;;;;2.93;1.67;;;;;;;16.56;87.17;98616.69;4937544;28;20246;-59
2023/08/09 00:07:58;;;;;;;3.37;1.80;;;;;;;16.59;85.02;98613.69;4941873;28;20238;-58
2023/08/09 00:10:26;;;;;;;2.43;1.50;;;;;;;16.62;84.88;98617.75;4941295;28;20238;-59
2023/08/09 00:12:53;;;;;;;3.17;1.50;;;;;;;16.63;82.75;98614.94;4938965;28;20244;-58
2023/08/09 00:15:20;;;;;;;5.43;1.67;;;;;;;16.64;84.04;98616.56;4940506;28;20223;-59
2023/08/09 00:17:47;;;;;;;3.40;1.70;;;;;;;16.66;83.49;98606.66;4937023;28;20247;-59
2023/08/09 00:20:14;;;;;;;3.43;1.60;;;;;;;16.63;84.11;98600.91;4940697;28;20239;-59
2023/08/09 00:22:42;;;;;;;2.53;1.47;;;;;;;16.57;85.57;98599.03;4938861;28;20559;-60
2023/08/09 00:25:10;;;;;;;2.67;1.50;;;;;;;16.50;84.97;98591.09;4941873;28;20234;-59
2023/08/09 00:27:38;;;;;;;2.30;1.57;;;;;;;16.51;84.24;98585.63;4936892;28;20307;-60
2023/08/09 00:30:07;;;;;;;3.07;1.90;;;;;;;16.48;83.88;98570.19;4942145;28;20227;-59
2023/08/09 00:32:34;;;;;;;2.60;1.57;;;;;;;16.47;84.64;98567.78;4936714;28;20231;-59
2023/08/09 00:35:00;;;;;;;3.00;1.50;;;;;;;16.45;85.25;98575.84;4942310;28;20234;-59
2023/08/09 00:37:27;;;;;;;5.93;1.77;;;;;;;16.42;87.70;98570.16;4951997;28;20219;-59
2023/08/09 00:39:54;;;;;;;3.13;1.90;;;;;;;16.41;88.15;98568.53;4940691;28;20227;-59
2023/08/09 00:42:21;;;;;;;5.43;2.07;;;;;;;16.36;89.07;98577.00;4939610;28;20886;-59
2023/08/09 00:44:49;;;;;;;3.13;1.53;;;;;;;16.32;87.50;98575.75;4953451;28;20230;-59
2023/08/09 00:47:16;;;;;;;3.73;1.30;;;;;;;16.26;86.77;98581.78;4955520;28;20226;-59
2023/08/09 00:49:42;;;;;;;2.77;1.57;;;;;;;16.26;86.62;98585.22;4951961;28;20231;-59
2023/08/09 00:52:10;;;;;;;3.27;1.60;;;;;;;16.27;87.75;98583.41;4953862;28;20275;-59
2023/08/09 00:54:39;;;;;;;5.07;1.60;;;;;;;16.29;85.78;98576.94;4938711;28;20683;-58
2023/08/09 00:57:07;;;;;;;6.20;1.70;;;;;;;16.34;85.57;98573.75;4938494;28;20594;-60
2023/08/09 00:59:34;;;;;;;2.10;1.50;;;;;;;16.29;85.29;98569.03;4938244;28;20223;-59
2023/08/09 01:02:02;;;;;;;2.17;1.97;;;;;;;16.31;86.76;98561.75;4939752;28;20242;-59
2023/08/09 01:04:29;;;;;;;4.77;1.80;;;;;;;16.32;86.52;98562.59;4938348;28;20237;-59
2023/08/09 01:07:01;;;;;;;2.37;1.47;;;;;;;16.36;86.93;98561.22;4954314;28;20321;-59
2023/08/09 01:09:36;;;;;;;3.00;1.50;;;;;;;16.38;86.45;98564.47;4935479;28;20223;-59
2023/08/09 01:12:07;;;;;;;1.73;1.40;;;;;;;16.34;89.35;98579.81;4953622;28;20237;-58
2023/08/09 01:14:37;;;;;;;3.60;1.70;;;;;;;16.28;90.92;98577.94;4951531;28;20309;-59
2023/08/09 01:17:08;;;;;;;2.70;1.53;;;;;;;16.25;91.99;98580.94;4937220;28;20792;-59
2023/08/09 01:19:39;;;;;;;3.67;1.43;;;;;;;16.12;92.61;98586.09;4931739;28;20257;-60
2023/08/09 01:22:13;;;;;;;5.70;1.70;;;;;;;16.14;89.60;98586.72;4939578;28;20683;-59
2023/08/09 01:24:41;;;;;;;2.50;1.60;;;;;;;16.19;87.45;98585.16;4936888;28;20216;-59
2023/08/09 01:27:08;;;;;;;4.17;1.33;;;;;;;16.34;82.04;98587.72;4939268;28;20561;-59
2023/08/09 01:29:35;;;;;;;2.67;1.20;;;;;;;16.42;81.03;98578.91;4936505;28;20223;-59
2023/08/09 01:32:02;;;;;;;4.00;1.67;;;;;;;16.57;80.96;98577.97;4940423;28;20243;-59
2023/08/09 01:34:30;;;;;;;2.53;1.70;;;;;;;16.65;79.37;98581.28;4937380;28;20224;-59
2023/08/09 01:37:03;;;;;;;5.30;1.90;;;;;;;16.67;81.46;98583.72;4938997;28;20310;-59
2023/08/09 01:39:34;;;;;;;3.77;1.73;;;;;;;16.67;82.67;98570.53;4947715;28;20335;-59
2023/08/09 01:42:02;;;;;;;3.87;1.60;;;;;;;16.55;87.28;98570.28;4933163;29;20225;-59
2023/08/09 01:44:29;;;;;;;2.80;1.77;;;;;;;16.45;88.64;98572.41;4946194;28;21146;-59
2023/08/09 01:46:57;;;;;;;3.10;1.83;;;;;;;16.29;90.22;98576.13;4935763;29;20238;-59
2023/08/09 01:49:24;;;;;;;2.27;1.77;;;;;;;16.30;84.87;98577.78;4939326;29;20230;-59
2023/08/09 01:51:51;;;;;;;2.87;1.80;;;;;;;16.33;87.46;98580.81;4932019;28;20289;-58
2023/08/09 01:54:19;;;;;;;2.43;1.67;;;;;;;16.36;84.71;98590.19;4936154;28;20249;-59
2023/08/09 01:56:46;;;;;;;5.53;1.60;;;;;;;16.35;89.65;98588.56;4933232;29;20238;-59
2023/08/09 01:59:14;;;;;;;3.73;1.60;;;;;;;16.36;88.19;98590.19;4936566;28;20322;-59
2023/08/09 02:01:41;;;;;;;2.13;1.30;;;;;;;16.30;90.90;98588.31;4930527;28;20223;-59
2023/08/09 02:04:10;;;;;;;2.40;1.37;;;;;;;16.25;92.80;98591.50;4947024;28;20241;-59
2023/08/09 02:06:38;;;;;;;4.07;2.03;;;;;;;16.13;92.53;98588.56;4931969;28;20227;-59
2023/08/09 02:09:06;;;;;;;4.57;1.70;;;;;;;16.12;92.92;98579.03;4951922;28;20584;-59
2023/08/09 02:11:32;;;;;;;3.87;1.80;;;;;;;16.16;91.09;98571.53;4928843;28;20218;-59
2023/08/09 02:13:59;;;;;;;2.70;1.70;;;;;;;16.16;88.84;98574.19;4950846;28;20244;-59
2023/08/09 02:16:29;;;;;;;2.50;1.80;;;;;;;16.46;82.67;98574.84;4938683;28;20280;-58
2023/08/09 02:18:56;;;;;;;3.33;1.50;;;;;;;16.48;82.23;98575.47;4934796;29;20314;-58
2023/08/09 02:21:28;;;;;;;2.50;1.60;;;;;;;16.41;87.72;98577.25;4947081;28;20323;-58
2023/08/09 02:23:56;;;;;;;3.73;1.67;;;;;;;16.40;85.46;98573.00;4933086;29;20242;-58
2023/08/09 02:26:27;;;;;;;3.07;1.50;;;;;;;16.75;78.31;98572.25;4948359;28;20299;-58
2023/08/09 02:28:54;;;;;;;3.57;1.60;;;;;;;16.77;79.11;98573.66;4948205;28;20246;-58
2023/08/09 02:31:20;;;;;;;4.70;1.40;;;;;;;16.85;76.96;98564.81;4949973;28;20231;-58
2023/08/09 02:33:48;;;;;;;3.63;2.00;;;;;;;16.93;75.80;98564.66;4937282;28;20235;-58
2023/08/09 02:36:15;;;;;;;2.20;1.60;;;;;;;17.00;74.47;98566.53;4933009;29;20231;-58
2023/08/09 02:38:42;;;;;;;4.60;1.50;;;;;;;17.15;73.63;98564.59;4945284;28;20237;-58
2023/08/09 02:41:09;;;;;;;3.00;1.40;;;;;;;17.18;73.56;98577.38;4932913;29;20242;-59
2023/08/09 02:43:36;;;;;;;2.50;1.50;;;;;;;17.25;73.64;98561.59;4932618;28;20249;-58
2023/08/09 02:46:04;;;;;;;2.57;1.50;;;;;;;17.22;72.30;98565.44;4934547;28;20255;-59
2023/08/09 02:48:31;;;;;;;3.00;1.30;;;;;;;17.33;71.92;98572.00;4932229;28;20223;-58
2023/08/09 02:50:59;;;;;;;2.30;1.80;;;;;;;17.36;71.12;98576.88;4942365;28;20240;-58
2023/08/09 02:53:27;;;;;;;4.10;1.40;;;;;;;17.49;70.48;98584.03;4941509;28;20228;-59
2023/08/09 02:55:54;;;;;;;4.70;1.70;;;;;;;17.49;69.91;98585.88;4934626;28;20596;-59
2023/08/09 02:58:20;;;;;;;2.63;1.20;;;;;;;17.68;69.52;98577.19;4950583;28;20221;-59
2023/08/09 03:00:47;;;;;;;2.80;1.40;;;;;;;17.60;69.80;98576.56;4935590;28;20339;-58
2023/08/09 03:03:14;;;;;;;4.23;1.03;;;;;;;17.59;69.46;98578.38;4940576;28;20241;-57
2023/08/09 03:05:40;;;;;;;2.10;1.20;;;;;;;17.52;69.83;98565.16;4931527;28;20225;-59
2023/08/09 03:08:08;;;;;;;3.77;1.50;;;;;;;17.52;69.98;98566.97;4941640;28;20233;-59
2023/08/09 03:10:35;;;;;;;3.30;1.40;;;;;;;17.49;69.93;98568.19;4930792;28;20230;-56
2023/08/09 03:13:02;;;;;;;1.93;1.33;;;;;;;17.55;68.64;98559.50;4935052;28;20233;-58
2023/08/09 03:15:29;;;;;;;1.67;1.13;;;;;;;17.55;69.90;98558.66;4929805;28;20249;-58
2023/08/09 03:17:56;;;;;;;3.03;1.30;;;;;;;17.60;68.69;98560.72;4932132;29;20237;-58
2023/08/09 03:20:23;;;;;;;2.27;1.40;;;;;;;17.68;67.35;98563.97;4935785;28;20255;-58
2023/08/09 03:22:49;;;;;;;2.40;1.50;;;;;;;17.69;67.92;98565.63;4931682;28;20320;-56
2023/08/09 03:25:18;;;;;;;2.37;1.20;;;;;;;17.73;67.20;98567.84;4935292;29;20263;-59
2023/08/09 03:27:48;;;;;;;7.03;1.40;;;;;;;17.73;67.62;98570.50;4946696;28;20232;-59
2023/08/09 03:32:57;;;;;;;2.37;1.40;;;;;;;17.80;66.25;98577.44;5015274;23;20294;-58
2023/08/09 03:35:24;;;;;;;1.73;1.30;;;;;;;17.93;64.94;98587.22;4937327;28;20314;-58
2023/08/09 03:37:50;;;;;;;3.40;1.17;;;;;;;17.91;65.59;98583.94;4949689;28;20664;-57
2023/08/09 03:40:18;;;;;;;3.13;1.30;;;;;;;17.90;66.87;98600.81;4939259;28;20227;-58
2023/08/09 03:42:46;;;;;;;1.97;1.23;;;;;;;17.84;65.71;98583.13;4944024;28;22663;-57
2023/08/09 03:45:12;;;;;;;2.87;1.20;;;;;;;17.82;66.09;98582.50;4953309;28;20243;-57
2023/08/09 03:47:40;;;;;;;4.10;1.50;;;;;;;17.82;64.84;98580.69;4952477;28;20281;-56
2023/08/09 03:50:09;;;;;;;3.77;1.13;;;;;;;17.96;64.38;98578.88;4953473;28;20242;-58
2023/08/09 03:52:36;;;;;;;5.90;1.73;;;;;;;17.91;65.42;98576.03;4935205;28;20237;-58
2023/08/09 03:55:03;;;;;;;2.53;1.40;;;;;;;17.90;65.50;98578.88;4934918;28;20270;-58
2023/08/09 03:57:31;;;;;;;3.47;1.10;;;;;;;17.83;65.76;98587.59;4940300;28;20218;-59
2023/08/09 03:59:58;;;;;;;2.00;1.33;;;;;;;17.92;63.74;98590.88;4953871;28;20239;-58
2023/08/09 04:02:25;;;;;;;4.77;1.33;;;;;;;17.96;66.12;98583.38;4936121;28;20314;-58
2023/08/09 04:04:52;;;;;;;1.93;1.20;;;;;;;17.93;64.83;98595.13;4937536;28;20583;-58
2023/08/09 04:07:19;;;;;;;1.77;1.10;;;;;;;17.95;65.37;98593.09;4937366;28;20744;-58
2023/08/09 04:09:46;;;;;;;3.73;2.07;;;;;;;17.93;65.37;98591.69;4935838;28;20278;-58
2023/08/09 04:12:12;;;;;;;3.47;1.20;;;;;;;17.97;64.42;98601.66;4952728;28;20256;-58
2023/08/09 04:14:40;;;;;;;2.23;1.60;;;;;;;17.96;63.70;98601.84;4933611;28;20215;-58
2023/08/09 04:17:07;;;;;;;4.10;1.30;;;;;;;18.06;63.29;98597.00;4949886;28;20243;-58
2023/08/09 04:19:33;;;;;;;4.30;1.70;;;;;;;18.04;63.88;98592.94;4936781;28;20226;-58
2023/08/09 04:22:00;;;;;;;1.97;1.00;;;;;;;18.04;63.54;98604.31;4937980;28;20241;-58
2023/08/09 04:24:27;;;;;;;2.90;1.20;;;;;;;18.18;62.38;98599.06;4936604;28;20229;-58
2023/08/09 04:26:54;;;;;;;1.90;1.10;;;;;;;18.12;63.09;98604.13;4937723;28;20256;-57
2023/08/09 04:29:20;;;;;;;2.63;1.10;;;;;;;18.10;63.73;98603.53;4952398;28;20600;-57
2023/08/09 04:31:49;;;;;;;2.07;1.30;;;;;;;18.03;65.46;98609.81;4932955;28;20248;-58
2023/08/09 04:34:16;;;;;;;3.00;1.10;;;;;;;18.13;63.49;98611.03;4938359;28;20251;-59
2023/08/09 04:36:42;;;;;;;3.10;1.20;;;;;;;18.07;64.74;98609.19;4935000;28;20785;-58
2023/08/09 04:39:09;;;;;;;2.23;1.20;;;;;;;18.13;64.16;98608.41;4937963;28;20632;-57
2023/08/09 04:41:37;;;;;;;4.97;1.40;;;;;;;18.18;62.93;98604.34;4932808;28;20219;-57
2023/08/09 04:44:05;;;;;;;4.30;1.20;;;;;;;18.14;64.55;98603.94;4936802;28;20593;-58
2023/08/09 04:46:32;;;;;;;4.57;1.10;;;;;;;18.09;63.89;98601.88;4933314;28;20230;-57
2023/08/09 04:49:00;;;;;;;1.47;1.20;;;;;;;18.19;62.92;98598.88;4938612;28;20792;-57
2023/08/09 04:51:28;;;;;;;1.93;1.10;;;;;;;18.16;63.33;98596.63;4931481;28;20236;-57
2023/08/09 04:53:55;;;;;;;2.77;1.30;;;;;;;18.13;63.54;98597.84;4937060;28;20236;-57
2023/08/09 04:56:25;;;;;;;2.17;1.03;;;;;;;18.14;63.42;98602.09;4938761;28;20233;-57
2023/08/09 04:58:51;;;;;;;2.73;1.43;;;;;;;18.13;63.73;98603.13;4934317;28;20235;-57
2023/08/09 05:01:18;;;;;;;1.50;1.00;;;;;;;18.18;62.89;98602.53;4936745;28;20230;-58
2023/08/09 05:03:44;;;;;;;2.10;1.23;;;;;;;18.27;62.38;98605.78;4935192;28;20248;-58
2023/08/09 05:06:13;;;;;;;6.00;1.70;;;;;;;18.26;63.21;98604.97;4938932;28;20583;-58
2023/08/09 05:08:39;;;;;;;3.50;1.50;;;;;;;18.22;63.28;98602.94;4931916;28;20238;-57
2023/08/09 05:11:06;;;;;;;3.50;1.30;;;;;;;18.23;63.24;98615.13;4935009;28;20335;-57
2023/08/09 05:13:32;;;;;;;2.23;1.40;;;;;;;18.21;62.73;98604.78;4932558;28;20587;-57
2023/08/09 05:15:59;;;;;;;2.03;1.10;;;;;;;18.23;63.11;98609.84;4933922;28;20228;-58
2023/08/09 05:18:26;;;;;;;3.77;1.53;;;;;;;18.25;63.34;98618.38;4933895;28;20233;-58
2023/08/09 05:20:53;;;;;;;1.07;0.97;;;;;;;18.35;62.16;98624.09;4935473;28;20301;-58
2023/08/09 05:23:21;;;;;;;3.73;1.40;;;;;;;18.39;61.75;98621.88;4936305;28;20249;-57
2023/08/09 05:25:47;;;;;;;3.07;1.30;;;;;;;18.39;62.26;98612.09;4933685;28;20234;-58
2023/08/09 05:28:14;;;;;;;1.90;1.10;;;;;;;18.41;61.89;98611.91;4935606;28;20237;-58
2023/08/09 05:30:41;;;;;;;3.27;1.30;;;;;;;18.41;62.81;98620.63;4932467;28;20232;-58
2023/08/09 05:33:08;;;;;;;2.57;1.00;;;;;;;18.36;63.40;98617.78;4935757;28;20241;-57
2023/08/09 05:35:35;;;;;;;2.40;1.40;;;;;;;18.36;62.65;98617.00;4932122;28;20232;-58
2023/08/09 05:38:01;;;;;;;2.40;1.37;;;;;;;18.34;64.33;98619.03;4934605;28;20253;-60
2023/08/09 05:40:29;;;;;;;2.23;1.30;;;;;;;18.32;63.31;98623.69;4934375;28;20315;-58
2023/08/09 05:42:56;;;;;;;4.60;1.30;;;;;;;18.35;62.68;98632.00;4936245;28;20489;-62
2023/08/09 05:45:23;;;;;;;1.77;1.37;;;;;;;18.42;62.15;98632.84;4934154;28;20226;-58
2023/08/09 05:47:49;;;;;;;2.73;1.40;;;;;;;18.39;64.85;98651.75;4932721;28;20263;-58
2023/08/09 05:50:16;;;;;;;1.80;1.23;;;;;;;18.35;65.98;98639.94;4936824;29;20240;-58
2023/08/09 05:52:43;;;;;;;2.83;1.13;;;;;;;18.27;67.76;98622.47;4933340;28;20220;-59
2023/08/09 05:55:10;;;;;;;2.93;1.30;;;;;;;18.22;67.64;98632.00;4938126;28;20257;-59
2023/08/09 05:57:38;;;;;;;2.97;1.63;;;;;;;18.00;69.59;98637.44;4931754;28;20227;-59
2023/08/09 06:00:11;;;;;;;3.13;1.63;;;;;;;17.97;70.38;98641.25;4934779;28;20231;-59
2023/08/09 06:02:37;;;;;;;4.10;1.53;;;;;;;17.97;68.93;98646.53;4933271;28;20310;-58
2023/08/09 06:05:04;;;;;;;3.47;1.47;;;;;;;17.98;70.12;98644.72;4934678;29;20244;-59
2023/08/09 06:07:32;;;;;;;2.60;1.60;;;;;;;17.95;71.46;98651.19;4930848;28;20267;-59
2023/08/09 06:09:59;;;;;;;3.13;1.40;;;;;;;18.04;70.98;98638.66;4934864;28;20287;-59
2023/08/09 06:12:25;;;;;;;3.30;1.57;;;;;;;18.05;72.47;98640.28;4934923;28;20240;-59
2023/08/09 06:14:53;;;;;;;3.50;1.53;;;;;;;18.10;68.05;98637.84;4931416;28;20593;-59
2023/08/09 06:17:20;;;;;;;1.90;1.23;;;;;;;18.23;68.02;98652.09;4935404;29;20242;-59
2023/08/09 06:19:46;;;;;;;3.27;1.67;;;;;;;18.24;71.41;98649.28;4947518;28;20687;-59
2023/08/09 06:22:13;;;;;;;4.23;1.70;;;;;;;18.14;68.60;98659.41;4936053;28;20606;-59
2023/08/09 06:24:40;;;;;;;2.53;1.40;;;;;;;18.18;67.61;98662.47;4933035;28;20222;-57
2023/08/09 06:27:06;;;;;;;5.13;1.53;;;;;;;18.19;69.71;98672.00;4934085;28;20229;-59
2023/08/09 06:29:33;;;;;;;2.70;1.30;;;;;;;18.14;69.87;98670.00;4932468;28;20234;-59
2023/08/09 06:32:01;;;;;;;4.33;1.53;;;;;;;18.14;67.30;98675.28;4933308;28;20709;-59
2023/08/09 06:34:28;;;;;;;1.83;1.30;;;;;;;18.14;66.94;98675.28;4931436;28;20839;-59
2023/08/09 06:36:55;;;;;;;5.47;1.70;;;;;;;18.09;69.92;98664.47;4933273;28;20235;-57
2023/08/09 06:39:21;;;;;;;3.23;1.50;;;;;;;18.22;67.18;98664.53;4933479;28;20235;-59
2023/08/09 06:41:49;;;;;;;4.40;1.60;;;;;;;18.23;66.56;98682.00;4933743;28;20320;-58
2023/08/09 06:44:16;;;;;;;1.50;1.30;;;;;;;18.25;66.74;98682.63;4936313;28;20601;-57
2023/08/09 06:46:44;;;;;;;5.27;1.57;;;;;;;18.53;65.08;98675.56;4933324;28;20230;-58
2023/08/09 06:49:12;;;;;;;3.60;1.53;;;;;;;18.64;66.64;98667.03;4936970;28;20240;-58
2023/08/09 06:51:39;;;;;;;1.70;1.30;;;;;;;18.93;66.85;98659.72;4932036;28;20249;-58
2023/08/09 06:54:06;;;;;;;3.77;1.33;;;;;;;19.07;65.26;98675.59;4934703;28;20235;-57
2023/08/09 06:56:34;;;;;;;4.53;1.53;;;;;;;19.01;65.12;98678.06;4932257;28;20221;-58
2023/08/09 06:59:01;;;;;;;2.50;1.27;;;;;;;18.85;65.50;98671.28;4934073;29;20320;-57
2023/08/09 07:01:28;;;;;;;2.93;1.30;;;;;;;18.81;65.16;98678.00;4929693;28;20236;-57
2023/08/09 07:03:54;;;;;;;8.20;1.40;;;;;;;18.72;66.24;98680.03;4935220;28;20770;-60
2023/08/09 07:06:26;;;;;;;2.63;1.20;;;;;;;18.72;65.16;98685.34;4933857;28;20319;-65
2023/08/09 07:08:53;;;;;;;2.77;1.47;;;;;;;18.84;64.64;98677.59;4934747;29;20598;-58
2023/08/09 07:11:20;;;;;;;4.87;1.57;;;;;;;18.93;64.70;98683.50;4935985;28;20244;-58
2023/08/09 07:13:46;;;;;;;5.90;1.67;;;;;;;19.29;63.04;98674.31;4930600;28;20238;-59
2023/08/09 07:16:13;;;;;;;3.33;1.77;;;;;;;19.47;66.05;98694.88;4937519;28;20235;-59
2023/08/09 07:18:40;;;;;;;2.97;1.40;;;;;;;19.35;64.23;98688.59;4934544;28;20685;-59
2023/08/09 07:21:06;;;;;;;4.23;1.23;;;;;;;19.20;64.47;98701.22;4937223;28;20232;-58
2023/08/09 07:23:34;;;;;;;5.67;1.20;;;;;;;19.24;65.08;98705.88;4935926;28;20588;-58
2023/08/09 07:26:01;;;;;;;2.20;1.43;;;;;;;19.01;66.56;98703.69;4939977;28;20246;-59
2023/08/09 07:28:28;;;;;;;4.37;1.50;;;;;;;18.73;66.91;98713.41;4935121;28;20279;-58
2023/08/09 07:30:56;;;;;;;5.20;1.70;;;;;;;18.77;66.52;98718.28;4934601;28;20233;-59
2023/08/09 07:33:22;;;;;;;2.80;1.40;;;;;;;19.02;65.72;98716.72;4939696;28;20237;-58
2023/08/09 07:35:49;;;;;;;3.00;1.63;;;;;;;18.90;67.05;98715.66;4932733;28;20225;-59
2023/08/09 07:38:16;;;;;;;3.10;1.40;;;;;;;18.89;67.45;98717.47;4934110;28;20239;-58
2023/08/09 07:40:44;;;;;;;4.00;1.40;;;;;;;18.89;66.98;98717.47;4939672;28;20230;-58
2023/08/09 07:43:11;;;;;;;2.57;1.37;;;;;;;19.20;65.35;98725.84;4936345;28;20323;-58
2023/08/09 07:45:41;;;;;;;4.50;1.57;;;;;;;19.17;65.79;98723.59;4937190;28;20224;-58
2023/08/09 07:48:08;;;;;;;3.00;1.37;;;;;;;18.95;66.46;98726.44;4940412;28;20848;-58
2023/08/09 07:50:34;;;;;;;6.40;1.47;;;;;;;18.84;67.64;98730.50;4951405;28;20218;-58
2023/08/09 07:53:01;;;;;;;3.97;1.53;;;;;;;18.88;69.07;98738.84;4948825;28;20231;-58
2023/08/09 07:55:28;;;;;;;2.17;1.40;;;;;;;18.81;68.79;98736.19;4934084;28;20216;-58
2023/08/09 07:57:56;;;;;;;4.97;1.33;;;;;;;18.88;68.56;98747.59;4937224;28;20596;-57
2023/08/09 08:00:24;;;;;;;3.43;1.97;;;;;;;18.80;69.63;98739.84;4939505;28;20277;-58
2023/08/09 08:02:51;;;;;;;2.77;1.53;;;;;;;18.92;69.29;98752.47;4935620;28;20326;-58
2023/08/09 08:05:17;;;;;;;3.90;1.40;;;;;;;18.84;69.53;98756.94;4939371;28;20273;-58
2023/08/09 08:07:44;;;;;;;2.20;1.47;;;;;;;19.14;68.97;98756.59;4935615;28;20222;-58
2023/08/09 08:10:14;;;;;;;4.30;1.60;;;;;;;19.09;69.37;98748.44;4938783;29;20233;-58
2023/08/09 08:12:43;;;;;;;3.93;1.70;;;;;;;18.98;69.24;98757.81;4934627;28;20226;-58
2023/08/09 08:15:12;;;;;;;4.00;1.60;;;;;;;19.27;67.89;98761.06;4936487;28;20243;-58
2023/08/09 08:17:40;;;;;;;5.17;1.60;;;;;;;19.54;66.85;98768.97;4933925;28;20249;-58
2023/08/09 08:20:10;;;;;;;4.03;1.80;;;;;;;19.23;68.06;98772.25;4939466;28;20236;-58
2023/08/09 08:22:37;;;;;;;3.07;1.73;;;;;;;19.38;67.37;98772.03;4941445;28;20342;-58
2023/08/09 08:25:05;;;;;;;4.77;1.60;;;;;;;19.15;68.95;98770.63;4938049;28;20331;-58
2023/08/09 08:27:34;;;;;;;5.70;1.90;;;;;;;19.25;68.79;98776.31;4935183;28;20346;-58
2023/08/09 08:30:01;;;;;;;5.97;1.77;;;;;;;19.13;69.44;98780.59;4936360;28;20794;-57
2023/08/09 08:32:29;;;;;;;5.50;2.00;;;;;;;19.14;70.05;98784.88;4930825;28;20227;-59
2023/08/09 08:34:56;;;;;;;4.70;1.80;;;;;;;19.20;68.96;98784.06;4935850;28;20234;-58
2023/08/09 08:37:23;;;;;;;6.90;1.77;;;;;;;19.33;70.50;98784.06;4935515;29;20314;-58
2023/08/09 08:39:50;;;;;;;3.10;1.63;;;;;;;19.26;69.74;98783.25;4934445;28;20233;-66
2023/08/09 08:42:18;;;;;;;9.60;2.13;;;;;;;19.41;68.89;98788.34;4938153;28;20263;-58
2023/08/09 08:44:45;;;;;;;3.97;1.83;;;;;;;19.58;68.93;98787.94;4934624;28;20235;-58
2023/08/09 08:47:12;;;;;;;2.37;1.57;;;;;;;19.73;67.73;98785.84;4935003;28;20221;-58
2023/08/09 08:49:43;;;;;;;3.83;2.13;;;;;;;19.90;66.67;98791.56;4934887;28;20240;-58
2023/08/09 08:52:12;;;;;;;4.07;1.80;;;;;;;19.48;68.61;98790.97;4938659;28;20243;-58
2023/08/09 08:54:39;;;;;;;5.67;1.87;;;;;;;19.26;70.04;98788.53;4934688;28;20272;-59
2023/08/09 08:57:07;;;;;;;2.77;1.90;;;;;;;19.57;69.11;98796.88;4935276;29;20233;-59
2023/08/09 08:59:34;;;;;;;3.87;1.63;;;;;;;19.34;70.94;98790.19;4941056;28;20672;-59
2023/08/09 09:02:02;;;;;;;5.57;2.10;;;;;;;19.35;70.42;98788.34;4939514;28;20314;-59
2023/08/09 09:04:29;;;;;;;7.63;2.63;;;;;;;19.45;71.64;98789.56;4935735;28;20880;-59
2023/08/09 09:06:57;;;;;;;6.80;2.00;;;;;;;19.56;70.60;98796.06;4938114;28;20251;-59
2023/08/09 09:09:24;;;;;;;3.93;1.70;;;;;;;19.67;69.99;98791.97;4939587;28;20221;-59
2023/08/09 09:11:52;;;;;;;4.90;1.40;;;;;;;19.87;68.84;98805.19;4934387;28;20245;-59
2023/08/09 09:14:19;;;;;;;5.33;1.90;;;;;;;19.96;69.21;98805.00;4939092;28;20236;-58
2023/08/09 09:16:46;;;;;;;6.73;2.20;;;;;;;19.61;68.88;98801.56;4934154;28;20657;-58
2023/08/09 09:19:12;;;;;;;3.63;1.80;;;;;;;20.04;67.40;98800.28;4936041;29;20241;-59
2023/08/09 09:21:40;;;;;;;4.47;2.03;;;;;;;20.12;68.75;98798.41;4936380;28;20901;-59
2023/08/09 09:24:09;;;;;;;4.10;1.83;;;;;;;20.51;65.35;98801.94;4933958;28;20295;-55
2023/08/09 09:26:37;;;;;;;5.07;1.60;;;;;;;20.06;68.82;98797.44;4931349;28;20218;-59
2023/08/09 09:29:07;;;;;;;4.53;2.00;;;;;;;20.34;67.57;98807.72;4934938;28;20240;-59
2023/08/09 09:31:36;;;;;;;3.70;2.00;;;;;;;20.24;68.42;98803.88;4932689;28;20246;-59
2023/08/09 09:34:03;;;;;;;4.90;1.83;;;;;;;20.41;67.62;98805.03;4937684;28;20232;-59
2023/08/09 09:36:30;;;;;;;7.67;2.00;;;;;;;20.21;68.02;98802.47;4933414;28;20229;-58
2023/08/09 09:38:57;;;;;;;5.20;1.90;;;;;;;20.55;66.76;98802.31;4933331;29;20241;-58
2023/08/09 09:41:29;;;;;;;5.93;1.73;;;;;;;20.99;64.94;98805.97;4933760;28;20229;-58
2023/08/09 09:43:56;;;;;;;3.20;1.67;;;;;;;21.25;64.61;98809.44;4937401;28;20230;-58
2023/08/09 09:46:28;;;;;;;4.83;1.57;;;;;;;21.53;65.27;98818.84;4931330;28;20238;-58
2023/08/09 09:49:00;;;;;;;6.73;2.20;;;;;;;21.61;63.98;98804.47;4936763;28;20253;-58
2023/08/09 09:51:28;;;;;;;3.57;1.57;;;;;;;21.08;63.28;98807.34;4933761;28;20232;-58
2023/08/09 09:53:55;;;;;;;2.00;1.53;;;;;;;21.53;63.95;98810.88;4935050;28;20233;-58
2023/08/09 09:56:25;;;;;;;4.47;1.80;;;;;;;21.66;63.12;98809.97;4934068;28;20227;-59
2023/08/09 09:58:53;;;;;;;3.83;1.80;;;;;;;22.09;61.82;98805.66;4933915;28;20568;-59
2023/08/09 10:01:22;;;;;;;12.87;2.90;;;;;;;22.42;61.26;98815.06;4935316;28;20226;-57
2023/08/09 10:03:50;;;;;;;5.70;1.70;;;;;;;22.35;60.68;98817.00;4932562;28;20230;-59
2023/08/09 10:06:22;;;;;;;6.53;1.90;;;;;;;22.62;60.09;98817.53;4938517;28;20311;-60
2023/08/09 10:08:51;;;;;;;6.50;1.73;;;;;;;22.49;60.43;98818.47;4931641;28;20247;-59
2023/08/09 10:11:20;;;;;;;4.37;1.87;;;;;;;22.78;58.98;98821.38;4936618;29;20604;-59
2023/08/09 10:13:47;;;;;;;3.33;1.50;;;;;;;22.76;60.35;98814.69;4934622;28;20240;-59
2023/08/09 10:16:18;;;;;;;4.60;1.97;;;;;;;22.48;61.22;98810.75;4933407;28;20227;-59
2023/08/09 10:18:48;;;;;;;3.73;1.87;;;;;;;21.91;62.17;98817.91;4949219;28;20268;-59
2023/08/09 10:21:18;;;;;;;4.83;1.80;;;;;;;21.92;64.32;98816.03;4935153;29;20241;-59
2023/08/09 10:23:55;;;;;;;2.33;1.93;;;;;;;22.31;61.38;98815.81;4932996;28;20707;-59
2023/08/09 10:26:29;;;;;;;5.37;1.80;;;;;;;22.76;61.36;98820.78;4936846;28;20235;-59
2023/08/09 10:29:02;;;;;;;4.27;1.73;;;;;;;23.19;58.11;98826.13;4934769;28;20313;-59
2023/08/09 10:31:51;;;;;;;3.90;1.63;;;;;;;23.20;58.32;98817.09;4931204;28;20226;-59
2023/08/09 10:34:20;;;;;;;5.57;1.60;;;;;;;23.14;59.48;98816.97;4934871;29;20236;-59
2023/08/09 10:36:53;;;;;;;5.53;1.83;;;;;;;22.33;61.77;98814.56;4931228;28;20496;-59
2023/08/09 10:39:19;;;;;;;4.50;2.33;;;;;;;22.20;61.12;98820.88;4935202;28;20236;-59
2023/08/09 10:42:01;;;;;;;3.27;1.97;;;;;;;22.56;61.86;98813.88;4931563;28;22508;-59
2023/08/09 10:44:36;;;;;;;4.90;1.60;;;;;;;22.92;61.73;98819.34;4928695;28;20232;-59
2023/08/09 10:47:06;;;;;;;3.83;2.33;;;;;;;22.76;59.97;98818.13;4936797;28;20242;-58
2023/08/09 10:50:00;;;;;;;7.10;1.90;;;;;;;22.66;61.12;98815.22;4934717;28;20288;-59
2023/08/09 10:52:33;;;;;;;6.20;2.27;;;;;;;22.94;60.64;98814.59;4931266;28;20766;-58
2023/08/09 10:55:25;;;;;;;6.63;2.20;;;;;;;22.61;60.34;98815.06;4938446;29;20712;-59
2023/08/09 10:57:52;;;;;;;6.77;2.03;;;;;;;22.52;59.57;98803.94;4938155;28;20238;-58
2023/08/09 11:00:22;;;;;;;4.00;2.00;;;;;;;22.49;60.22;98807.06;4939768;28;20241;-59
2023/08/09 11:02:52;;;;;;;3.53;1.70;;;;;;;22.39;60.74;98815.50;4935075;28;20729;-58
2023/08/09 11:05:20;;;;;;;5.07;1.80;;;;;;;22.01;62.65;98800.63;4937085;28;20720;-57
2023/08/09 11:07:48;;;;;;;3.30;1.73;;;;;;;22.42;61.52;98791.94;4935844;28;23072;-59
2023/08/09 11:10:16;;;;;;;4.13;1.73;;;;;;;22.23;62.79;98807.13;4938297;28;20228;-58
2023/08/09 11:12:43;;;;;;;7.30;1.83;;;;;;;22.21;63.83;98800.41;4933270;28;20649;-59
2023/08/09 11:15:12;;;;;;;4.73;1.90;;;;;;;22.35;63.06;98809.00;4938365;28;20312;-59
2023/08/09 11:17:48;;;;;;;6.03;2.23;;;;;;;22.38;62.22;98805.91;4935318;28;20240;-59
2023/08/09 11:20:19;;;;;;;3.27;1.90;;;;;;;22.32;61.85;98804.13;4938002;28;20230;-59
2023/08/09 11:22:46;;;;;;;4.07;1.90;;;;;;;22.22;62.96;98799.34;4935197;28;20246;-59
2023/08/09 11:25:12;;;;;;;3.90;1.87;;;;;;;22.37;62.04;98791.00;4940235;28;20239;-59
2023/08/09 11:27:39;;;;;;;6.70;1.97;;;;;;;22.17;63.49;98788.59;4933466;28;20241;-59
2023/08/09 11:30:08;;;;;;;4.97;2.27;;;;;;;21.89;64.09;98796.06;4937906;28;20269;-59
2023/08/09 11:32:35;;;;;;;4.77;2.07;;;;;;;21.31;67.24;98786.56;4933830;28;20677;-59
2023/08/09 11:35:03;;;;;;;3.63;1.70;;;;;;;21.34;67.25;98797.53;4936010;28;20237;-59
2023/08/09 11:37:32;;;;;;;4.00;1.83;;;;;;;21.26;66.36;98797.00;4937406;28;20220;-58
2023/08/09 11:39:58;;;;;;;3.93;1.80;;;;;;;21.22;70.62;98792.13;4940094;28;20245;-59